Terminal Aerodrome Forecast
Issued by NWS

Home | Current Version | Previous Version | Text Only | Print | Product List | Glossary On
Versions: 1 2 3 4 5 6 7 8 9 10 11 12 13 14 15 16 17 18 19 20 21 22 23 24 25 26 27 28 29 30 31 32 33 34 35 36 37 38
422
FTUS44 KLZK 191121
TAFADF
TAF
KADF 191121Z 1912/2012 VRB03KT P6SM SCT250
      TEMPO 1912/1913 4SM BR FEW005
     FM191500 17007KT P6SM BKN250
     FM200000 VRB03KT P6SM BKN250=

USA.gov is the U.S. government's official web portal to all federal, state and local government web resources and services.